sensor_id;sensor_type;location;lat;lon;timestamp;pressure;altitude;pressure_sealevel;temperature;humidity
16613;BME280;8419;52.358;9.752;2023-04-30T00:00:41;101619.00;;;16.76;37.30
16613;BME280;8419;52.358;9.752;2023-04-30T00:03:27;101619.00;;;16.70;37.38
16613;BME280;8419;52.358;9.752;2023-04-30T00:06:15;101623.00;;;16.79;37.23
16613;BME280;8419;52.358;9.752;2023-04-30T00:09:00;101624.00;;;16.86;37.07
16613;BME280;8419;52.358;9.752;2023-04-30T00:11:46;101619.00;;;16.86;37.02
16613;BME280;8419;52.358;9.752;2023-04-30T00:14:31;101622.00;;;16.85;37.06
16613;BME280;8419;52.358;9.752;2023-04-30T00:17:17;101630.00;;;16.83;37.03
16613;BME280;8419;52.358;9.752;2023-04-30T00:20:05;101628.00;;;16.82;36.99
16613;BME280;8419;52.358;9.752;2023-04-30T00:22:50;101628.00;;;16.80;37.00
16613;BME280;8419;52.358;9.752;2023-04-30T00:25:36;101628.00;;;16.79;37.00
16613;BME280;8419;52.358;9.752;2023-04-30T00:28:23;101625.00;;;16.74;37.06
16613;BME280;8419;52.358;9.752;2023-04-30T00:31:09;101627.00;;;16.69;37.13
16613;BME280;8419;52.358;9.752;2023-04-30T00:33:55;101633.00;;;16.56;37.33
16613;BME280;8419;52.358;9.752;2023-04-30T00:36:40;101636.00;;;16.65;37.15
16613;BME280;8419;52.358;9.752;2023-04-30T00:39:25;101631.00;;;16.60;37.19
16613;BME280;8419;52.358;9.752;2023-04-30T00:42:11;101636.00;;;16.58;37.18
16613;BME280;8419;52.358;9.752;2023-04-30T00:44:56;101643.00;;;16.56;37.16
16613;BME280;8419;52.358;9.752;2023-04-30T00:47:42;101648.00;;;16.54;37.18
16613;BME280;8419;52.358;9.752;2023-04-30T00:50:28;101654.00;;;16.52;37.21
16613;BME280;8419;52.358;9.752;2023-04-30T00:53:14;101653.00;;;16.42;37.31
16613;BME280;8419;52.358;9.752;2023-04-30T00:56:00;101655.00;;;16.48;37.22
16613;BME280;8419;52.358;9.752;2023-04-30T00:58:47;101656.00;;;16.45;37.27
16613;BME280;8419;52.358;9.752;2023-04-30T01:01:38;101653.00;;;16.43;37.26
16613;BME280;8419;52.358;9.752;2023-04-30T01:04:24;101654.00;;;16.15;37.78
16613;BME280;8419;52.358;9.752;2023-04-30T01:07:10;101654.00;;;16.34;37.43
16613;BME280;8419;52.358;9.752;2023-04-30T01:09:55;101651.00;;;16.25;37.55
16613;BME280;8419;52.358;9.752;2023-04-30T01:12:47;101656.00;;;16.34;37.40
16613;BME280;8419;52.358;9.752;2023-04-30T01:15:44;101655.00;;;16.26;37.54
16613;BME280;8419;52.358;9.752;2023-04-30T01:18:36;101654.00;;;16.28;37.47
16613;BME280;8419;52.358;9.752;2023-04-30T01:21:23;101661.00;;;16.29;37.40
16613;BME280;8419;52.358;9.752;2023-04-30T01:24:50;101669.00;;;16.34;37.31
16613;BME280;8419;52.358;9.752;2023-04-30T01:27:58;101663.00;;;16.27;37.46
16613;BME280;8419;52.358;9.752;2023-04-30T01:30:46;101669.00;;;16.31;37.33
16613;BME280;8419;52.358;9.752;2023-04-30T01:33:32;101674.00;;;16.30;37.28
16613;BME280;8419;52.358;9.752;2023-04-30T01:36:38;101666.00;;;16.26;37.32
16613;BME280;8419;52.358;9.752;2023-04-30T01:39:37;101677.00;;;16.12;37.60
16613;BME280;8419;52.358;9.752;2023-04-30T01:42:32;101678.00;;;16.18;37.44
16613;BME280;8419;52.358;9.752;2023-04-30T01:45:34;101678.00;;;16.11;37.50
16613;BME280;8419;52.358;9.752;2023-04-30T01:48:26;101672.00;;;16.21;37.34
16613;BME280;8419;52.358;9.752;2023-04-30T01:51:24;101675.00;;;16.12;37.45
16613;BME280;8419;52.358;9.752;2023-04-30T01:54:18;101677.00;;;16.04;37.59
16613;BME280;8419;52.358;9.752;2023-04-30T01:57:07;101688.00;;;16.04;37.65
16613;BME280;8419;52.358;9.752;2023-04-30T01:59:57;101687.00;;;16.05;37.53
16613;BME280;8419;52.358;9.752;2023-04-30T02:02:43;101690.00;;;16.05;37.51
16613;BME280;8419;52.358;9.752;2023-04-30T02:05:28;101678.00;;;16.05;37.53
16613;BME280;8419;52.358;9.752;2023-04-30T02:08:14;101690.00;;;15.85;37.93
16613;BME280;8419;52.358;9.752;2023-04-30T02:10:59;101686.00;;;15.95;37.74
16613;BME280;8419;52.358;9.752;2023-04-30T02:13:44;101694.00;;;15.92;37.78
16613;BME280;8419;52.358;9.752;2023-04-30T02:16:30;101695.00;;;16.02;37.61
16613;BME280;8419;52.358;9.752;2023-04-30T02:19:17;101702.00;;;16.03;37.59
16613;BME280;8419;52.358;9.752;2023-04-30T02:22:05;101694.00;;;15.86;37.94
16613;BME280;8419;52.358;9.752;2023-04-30T02:24:52;101694.00;;;15.92;37.85
16613;BME280;8419;52.358;9.752;2023-04-30T02:27:41;101694.00;;;15.98;37.73
16613;BME280;8419;52.358;9.752;2023-04-30T02:30:27;101695.00;;;15.94;37.83
16613;BME280;8419;52.358;9.752;2023-04-30T02:33:13;101697.00;;;16.00;37.69
16613;BME280;8419;52.358;9.752;2023-04-30T02:35:59;101698.00;;;15.97;37.78
16613;BME280;8419;52.358;9.752;2023-04-30T02:38:45;101695.00;;;16.00;37.75
16613;BME280;8419;52.358;9.752;2023-04-30T02:41:30;101697.00;;;16.00;37.71
16613;BME280;8419;52.358;9.752;2023-04-30T02:44:17;101698.00;;;16.00;37.70
16613;BME280;8419;52.358;9.752;2023-04-30T02:47:03;101697.00;;;15.97;37.76
16613;BME280;8419;52.358;9.752;2023-04-30T02:49:49;101692.00;;;15.94;37.81
16613;BME280;8419;52.358;9.752;2023-04-30T02:52:34;101703.00;;;15.94;37.77
16613;BME280;8419;52.358;9.752;2023-04-30T02:55:21;101706.00;;;15.90;37.82
16613;BME280;8419;52.358;9.752;2023-04-30T02:58:06;101712.00;;;15.87;37.86
16613;BME280;8419;52.358;9.752;2023-04-30T03:00:51;101710.00;;;15.79;37.97
16613;BME280;8419;52.358;9.752;2023-04-30T03:03:37;101717.00;;;15.74;38.06
16613;BME280;8419;52.358;9.752;2023-04-30T03:06:22;101723.00;;;15.71;38.13
16613;BME280;8419;52.358;9.752;2023-04-30T03:09:08;101713.00;;;15.76;38.03
16613;BME280;8419;52.358;9.752;2023-04-30T03:11:54;101716.00;;;15.70;38.09
16613;BME280;8419;52.358;9.752;2023-04-30T03:14:39;101713.00;;;15.68;38.13
16613;BME280;8419;52.358;9.752;2023-04-30T03:17:25;101713.00;;;15.32;38.83
16613;BME280;8419;52.358;9.752;2023-04-30T03:20:11;101716.00;;;15.26;39.00
16613;BME280;8419;52.358;9.752;2023-04-30T03:22:57;101719.00;;;15.25;39.06
16613;BME280;8419;52.358;9.752;2023-04-30T03:25:43;101721.00;;;15.28;39.03
16613;BME280;8419;52.358;9.752;2023-04-30T03:28:28;101721.00;;;15.26;39.07
16613;BME280;8419;52.358;9.752;2023-04-30T03:31:15;101718.00;;;15.23;39.11
16613;BME280;8419;52.358;9.752;2023-04-30T03:34:02;101718.00;;;15.21;39.14
16613;BME280;8419;52.358;9.752;2023-04-30T03:36:49;101723.00;;;15.18;39.20
16613;BME280;8419;52.358;9.752;2023-04-30T03:39:34;101718.00;;;15.12;39.25
16613;BME280;8419;52.358;9.752;2023-04-30T03:42:20;101714.00;;;15.11;39.26
16613;BME280;8419;52.358;9.752;2023-04-30T03:45:07;101717.00;;;15.04;39.33
16613;BME280;8419;52.358;9.752;2023-04-30T03:47:53;101720.00;;;15.02;39.34
16613;BME280;8419;52.358;9.752;2023-04-30T03:50:39;101731.00;;;14.99;39.39
16613;BME280;8419;52.358;9.752;2023-04-30T03:53:26;101724.00;;;14.99;39.39
16613;BME280;8419;52.358;9.752;2023-04-30T03:56:13;101732.00;;;14.86;39.68
16613;BME280;8419;52.358;9.752;2023-04-30T03:59:01;101736.00;;;14.97;39.50
16613;BME280;8419;52.358;9.752;2023-04-30T04:01:49;101744.00;;;14.97;39.48
16613;BME280;8419;52.358;9.752;2023-04-30T04:04:35;101742.00;;;14.85;39.60
16613;BME280;8419;52.358;9.752;2023-04-30T04:07:20;101747.00;;;14.76;39.82
16613;BME280;8419;52.358;9.752;2023-04-30T04:10:07;101752.00;;;14.77;39.76
16613;BME280;8419;52.358;9.752;2023-04-30T04:12:52;101753.00;;;14.73;39.90
16613;BME280;8419;52.358;9.752;2023-04-30T04:15:38;101751.00;;;14.69;39.94
16613;BME280;8419;52.358;9.752;2023-04-30T04:18:24;101751.00;;;14.81;39.76
16613;BME280;8419;52.358;9.752;2023-04-30T04:21:10;101756.00;;;14.78;39.81
16613;BME280;8419;52.358;9.752;2023-04-30T04:23:56;101759.00;;;14.81;39.85
16613;BME280;8419;52.358;9.752;2023-04-30T04:26:41;101751.00;;;14.79;39.94
16613;BME280;8419;52.358;9.752;2023-04-30T04:29:27;101754.00;;;14.80;40.00
16613;BME280;8419;52.358;9.752;2023-04-30T04:32:13;101764.00;;;14.89;39.87
16613;BME280;8419;52.358;9.752;2023-04-30T04:34:59;101763.00;;;14.97;39.68
16613;BME280;8419;52.358;9.752;2023-04-30T04:37:45;101777.00;;;14.99;39.70
16613;BME280;8419;52.358;9.752;2023-04-30T04:40:30;101770.00;;;15.02;39.67
16613;BME280;8419;52.358;9.752;2023-04-30T04:43:17;101769.00;;;14.96;39.83
16613;BME280;8419;52.358;9.752;2023-04-30T04:46:02;101771.00;;;15.09;39.63
16613;BME280;8419;52.358;9.752;2023-04-30T04:48:48;101768.00;;;15.13;39.56
16613;BME280;8419;52.358;9.752;2023-04-30T04:51:34;101775.00;;;15.14;39.60
16613;BME280;8419;52.358;9.752;2023-04-30T04:54:19;101775.00;;;15.14;39.65
16613;BME280;8419;52.358;9.752;2023-04-30T04:57:05;101776.00;;;15.15;39.70
16613;BME280;8419;52.358;9.752;2023-04-30T04:59:50;101785.00;;;15.14;39.77
16613;BME280;8419;52.358;9.752;2023-04-30T05:02:35;101791.00;;;15.17;39.78
16613;BME280;8419;52.358;9.752;2023-04-30T05:05:21;101787.00;;;15.23;39.76
16613;BME280;8419;52.358;9.752;2023-04-30T05:08:06;101792.00;;;15.30;39.70
16613;BME280;8419;52.358;9.752;2023-04-30T05:10:52;101793.00;;;15.31;39.78
16613;BME280;8419;52.358;9.752;2023-04-30T05:13:37;101793.00;;;15.44;39.59
16613;BME280;8419;52.358;9.752;2023-04-30T05:16:23;101802.00;;;15.49;39.59
16613;BME280;8419;52.358;9.752;2023-04-30T05:19:09;101797.00;;;15.35;39.91
16613;BME280;8419;52.358;9.752;2023-04-30T05:21:56;101804.00;;;15.44;39.84
16613;BME280;8419;52.358;9.752;2023-04-30T05:24:42;101796.00;;;15.47;39.84
16613;BME280;8419;52.358;9.752;2023-04-30T05:27:27;101800.00;;;15.54;39.77
16613;BME280;8419;52.358;9.752;2023-04-30T05:30:13;101807.00;;;15.58;39.73
16613;BME280;8419;52.358;9.752;2023-04-30T05:32:59;101802.00;;;15.66;39.59
16613;BME280;8419;52.358;9.752;2023-04-30T05:35:45;101802.00;;;15.74;39.45
16613;BME280;8419;52.358;9.752;2023-04-30T05:38:31;101798.00;;;15.74;39.38
16613;BME280;8419;52.358;9.752;2023-04-30T05:41:17;101800.00;;;15.76;39.35
16613;BME280;8419;52.358;9.752;2023-04-30T05:44:02;101810.00;;;15.82;39.21
16613;BME280;8419;52.358;9.752;2023-04-30T05:46:48;101807.00;;;15.86;39.08
16613;BME280;8419;52.358;9.752;2023-04-30T05:49:34;101816.00;;;15.91;38.94
16613;BME280;8419;52.358;9.752;2023-04-30T05:52:22;101807.00;;;15.92;38.85
16613;BME280;8419;52.358;9.752;2023-04-30T05:55:12;101811.00;;;15.95;38.77
16613;BME280;8419;52.358;9.752;2023-04-30T05:57:58;101803.00;;;16.01;38.68
16613;BME280;8419;52.358;9.752;2023-04-30T06:00:44;101805.00;;;16.05;38.58
16613;BME280;8419;52.358;9.752;2023-04-30T06:03:33;101809.00;;;16.09;38.49
16613;BME280;8419;52.358;9.752;2023-04-30T06:06:22;101810.00;;;16.13;38.41
16613;BME280;8419;52.358;9.752;2023-04-30T06:09:07;101821.00;;;16.19;38.23
16613;BME280;8419;52.358;9.752;2023-04-30T06:11:53;101819.00;;;16.26;38.12
16613;BME280;8419;52.358;9.752;2023-04-30T06:14:39;101818.00;;;16.32;38.03
16613;BME280;8419;52.358;9.752;2023-04-30T06:17:29;101823.00;;;16.38;37.86
16613;BME280;8419;52.358;9.752;2023-04-30T06:20:15;101826.00;;;16.43;37.68
16613;BME280;8419;52.358;9.752;2023-04-30T06:23:02;101821.00;;;16.49;37.51
16613;BME280;8419;52.358;9.752;2023-04-30T06:25:48;101825.00;;;16.53;37.63
16613;BME280;8419;52.358;9.752;2023-04-30T06:28:34;101821.00;;;16.70;37.54
16613;BME280;8419;52.358;9.752;2023-04-30T06:31:20;101823.00;;;16.76;37.56
16613;BME280;8419;52.358;9.752;2023-04-30T06:34:05;101833.00;;;16.86;37.41
16613;BME280;8419;52.358;9.752;2023-04-30T06:36:50;101841.00;;;16.91;37.32
16613;BME280;8419;52.358;9.752;2023-04-30T06:39:36;101838.00;;;17.00;36.97
16613;BME280;8419;52.358;9.752;2023-04-30T06:42:22;101834.00;;;16.99;36.71
16613;BME280;8419;52.358;9.752;2023-04-30T06:45:11;101833.00;;;17.07;36.46
16613;BME280;8419;52.358;9.752;2023-04-30T06:47:59;101835.00;;;17.05;36.38
16613;BME280;8419;52.358;9.752;2023-04-30T06:50:44;101827.00;;;17.08;36.24
16613;BME280;8419;52.358;9.752;2023-04-30T06:53:30;101825.00;;;17.13;36.08
16613;BME280;8419;52.358;9.752;2023-04-30T06:56:16;101820.00;;;17.18;35.88
16613;BME280;8419;52.358;9.752;2023-04-30T06:59:02;101826.00;;;17.26;35.70
16613;BME280;8419;52.358;9.752;2023-04-30T07:01:48;101822.00;;;17.30;35.59
16613;BME280;8419;52.358;9.752;2023-04-30T07:04:34;101820.00;;;17.35;35.41
16613;BME280;8419;52.358;9.752;2023-04-30T07:07:39;101827.00;;;17.43;35.26
16613;BME280;8419;52.358;9.752;2023-04-30T07:10:25;101834.00;;;17.50;35.08
16613;BME280;8419;52.358;9.752;2023-04-30T07:13:10;101839.00;;;17.54;34.94
16613;BME280;8419;52.358;9.752;2023-04-30T07:15:57;101835.00;;;17.60;34.79
16613;BME280;8419;52.358;9.752;2023-04-30T07:18:44;101835.00;;;17.63;34.55
16613;BME280;8419;52.358;9.752;2023-04-30T07:21:33;101843.00;;;17.54;34.56
16613;BME280;8419;52.358;9.752;2023-04-30T07:24:18;101843.00;;;17.49;34.59
16613;BME280;8419;52.358;9.752;2023-04-30T07:27:04;101845.00;;;17.50;34.54
16613;BME280;8419;52.358;9.752;2023-04-30T07:29:51;101845.00;;;17.56;34.41
16613;BME280;8419;52.358;9.752;2023-04-30T07:32:37;101846.00;;;17.63;34.29
16613;BME280;8419;52.358;9.752;2023-04-30T07:35:24;101846.00;;;17.70;34.13
16613;BME280;8419;52.358;9.752;2023-04-30T07:38:10;101845.00;;;17.75;34.05
16613;BME280;8419;52.358;9.752;2023-04-30T07:40:55;101843.00;;;17.77;33.99
16613;BME280;8419;52.358;9.752;2023-04-30T07:43:41;101843.00;;;17.93;33.81
16613;BME280;8419;52.358;9.752;2023-04-30T07:46:27;101844.00;;;17.97;33.74
16613;BME280;8419;52.358;9.752;2023-04-30T07:49:13;101843.00;;;18.01;33.54
16613;BME280;8419;52.358;9.752;2023-04-30T07:51:58;101844.00;;;17.97;33.58
16613;BME280;8419;52.358;9.752;2023-04-30T07:54:45;101836.00;;;17.98;33.54
16613;BME280;8419;52.358;9.752;2023-04-30T07:57:30;101844.00;;;17.97;33.51
16613;BME280;8419;52.358;9.752;2023-04-30T08:00:15;101849.00;;;18.01;33.42
16613;BME280;8419;52.358;9.752;2023-04-30T08:03:01;101842.00;;;18.02;33.28
16613;BME280;8419;52.358;9.752;2023-04-30T08:05:47;101848.00;;;17.99;33.33
16613;BME280;8419;52.358;9.752;2023-04-30T08:08:32;101839.00;;;18.09;33.13
16613;BME280;8419;52.358;9.752;2023-04-30T08:11:18;101842.00;;;18.14;33.04
16613;BME280;8419;52.358;9.752;2023-04-30T08:14:04;101849.00;;;18.22;32.95
16613;BME280;8419;52.358;9.752;2023-04-30T08:16:51;101852.00;;;18.33;32.77
16613;BME280;8419;52.358;9.752;2023-04-30T08:19:36;101850.00;;;18.41;32.65
16613;BME280;8419;52.358;9.752;2023-04-30T08:22:22;101853.00;;;18.49;32.53
16613;BME280;8419;52.358;9.752;2023-04-30T08:25:11;101849.00;;;18.56;32.39
16613;BME280;8419;52.358;9.752;2023-04-30T08:27:56;101852.00;;;18.62;32.27
16613;BME280;8419;52.358;9.752;2023-04-30T08:30:42;101850.00;;;18.62;32.23
16613;BME280;8419;52.358;9.752;2023-04-30T08:33:28;101844.00;;;18.71;32.14
16613;BME280;8419;52.358;9.752;2023-04-30T08:36:13;101844.00;;;18.79;32.03
16613;BME280;8419;52.358;9.752;2023-04-30T08:38:59;101848.00;;;18.84;31.92
16613;BME280;8419;52.358;9.752;2023-04-30T08:41:50;101853.00;;;18.90;31.75
16613;BME280;8419;52.358;9.752;2023-04-30T08:44:40;101845.00;;;18.92;31.64
16613;BME280;8419;52.358;9.752;2023-04-30T08:47:28;101845.00;;;18.96;31.55
16613;BME280;8419;52.358;9.752;2023-04-30T08:50:13;101838.00;;;19.04;31.43
16613;BME280;8419;52.358;9.752;2023-04-30T08:53:00;101838.00;;;19.01;31.44
16613;BME280;8419;52.358;9.752;2023-04-30T08:55:46;101835.00;;;18.94;31.29
16613;BME280;8419;52.358;9.752;2023-04-30T08:58:32;101823.00;;;18.95;31.29
16613;BME280;8419;52.358;9.752;2023-04-30T09:01:19;101839.00;;;19.06;31.15
16613;BME280;8419;52.358;9.752;2023-04-30T09:04:05;101827.00;;;19.19;30.97
16613;BME280;8419;52.358;9.752;2023-04-30T09:06:52;101831.00;;;19.31;30.77
16613;BME280;8419;52.358;9.752;2023-04-30T09:09:42;101831.00;;;19.44;30.50
16613;BME280;8419;52.358;9.752;2023-04-30T09:12:28;101838.00;;;19.61;30.23
16613;BME280;8419;52.358;9.752;2023-04-30T09:15:15;101835.00;;;19.65;30.09
16613;BME280;8419;52.358;9.752;2023-04-30T09:18:10;101841.00;;;19.70;29.99
16613;BME280;8419;52.358;9.752;2023-04-30T09:20:57;101837.00;;;19.74;29.86
16613;BME280;8419;52.358;9.752;2023-04-30T09:23:54;101831.00;;;19.66;29.95
16613;BME280;8419;52.358;9.752;2023-04-30T09:26:41;101836.00;;;19.64;29.95
16613;BME280;8419;52.358;9.752;2023-04-30T09:29:37;101827.00;;;19.67;29.93
16613;BME280;8419;52.358;9.752;2023-04-30T09:32:22;101823.00;;;19.71;29.88
16613;BME280;8419;52.358;9.752;2023-04-30T09:35:28;101826.00;;;19.82;29.55
16613;BME280;8419;52.358;9.752;2023-04-30T09:38:28;101825.00;;;19.97;29.45
16613;BME280;8419;52.358;9.752;2023-04-30T09:41:22;101821.00;;;20.04;29.34
16613;BME280;8419;52.358;9.752;2023-04-30T09:44:25;101820.00;;;20.12;29.13
16613;BME280;8419;52.358;9.752;2023-04-30T09:47:16;101814.00;;;20.23;29.05
16613;BME280;8419;52.358;9.752;2023-04-30T09:50:05;101807.00;;;20.31;28.83
16613;BME280;8419;52.358;9.752;2023-04-30T09:52:53;101808.00;;;20.35;28.80
16613;BME280;8419;52.358;9.752;2023-04-30T09:55:50;101801.00;;;20.50;28.36
16613;BME280;8419;52.358;9.752;2023-04-30T09:58:36;101804.00;;;20.45;28.41
16613;BME280;8419;52.358;9.752;2023-04-30T10:01:26;101797.00;;;20.47;28.10
16613;BME280;8419;52.358;9.752;2023-04-30T10:04:12;101793.00;;;20.57;28.04
16613;BME280;8419;52.358;9.752;2023-04-30T10:07:03;101795.00;;;20.74;27.95
16613;BME280;8419;52.358;9.752;2023-04-30T10:09:50;101799.00;;;20.94;27.76
16613;BME280;8419;52.358;9.752;2023-04-30T10:12:43;101789.00;;;21.08;27.55
16613;BME280;8419;52.358;9.752;2023-04-30T10:15:37;101784.00;;;21.13;27.52
16613;BME280;8419;52.358;9.752;2023-04-30T10:18:31;101789.00;;;21.25;27.34
16613;BME280;8419;52.358;9.752;2023-04-30T10:21:21;101785.00;;;21.32;27.20
16613;BME280;8419;52.358;9.752;2023-04-30T10:24:08;101787.00;;;21.36;27.13
16613;BME280;8419;52.358;9.752;2023-04-30T10:26:55;101791.00;;;21.49;26.91
16613;BME280;8419;52.358;9.752;2023-04-30T10:29:43;101785.00;;;21.61;26.75
16613;BME280;8419;52.358;9.752;2023-04-30T10:32:40;101784.00;;;21.68;26.53
16613;BME280;8419;52.358;9.752;2023-04-30T10:35:34;101783.00;;;21.72;26.48
16613;BME280;8419;52.358;9.752;2023-04-30T10:38:28;101781.00;;;21.90;26.39
16613;BME280;8419;52.358;9.752;2023-04-30T10:41:15;101776.00;;;22.04;26.12
16613;BME280;8419;52.358;9.752;2023-04-30T10:44:06;101780.00;;;22.22;25.87
16613;BME280;8419;52.358;9.752;2023-04-30T10:46:58;101770.00;;;22.27;25.65
16613;BME280;8419;52.358;9.752;2023-04-30T10:49:46;101761.00;;;22.29;25.46
16613;BME280;8419;52.358;9.752;2023-04-30T10:52:33;101762.00;;;22.35;25.31
16613;BME280;8419;52.358;9.752;2023-04-30T10:55:20;101756.00;;;22.38;25.30
16613;BME280;8419;52.358;9.752;2023-04-30T10:58:23;101760.00;;;22.54;25.01
16613;BME280;8419;52.358;9.752;2023-04-30T11:01:11;101755.00;;;22.67;24.89
16613;BME280;8419;52.358;9.752;2023-04-30T11:04:06;101754.00;;;22.70;24.83
16613;BME280;8419;52.358;9.752;2023-04-30T11:07:00;101749.00;;;22.89;24.60
16613;BME280;8419;52.358;9.752;2023-04-30T11:09:48;101746.00;;;23.04;24.23
16613;BME280;8419;52.358;9.752;2023-04-30T11:12:33;101740.00;;;23.16;24.05
16613;BME280;8419;52.358;9.752;2023-04-30T11:15:24;101741.00;;;23.20;23.92
16613;BME280;8419;52.358;9.752;2023-04-30T11:18:12;101749.00;;;23.34;23.74
16613;BME280;8419;52.358;9.752;2023-04-30T11:20:58;101736.00;;;23.43;23.63
16613;BME280;8419;52.358;9.752;2023-04-30T11:23:48;101734.00;;;23.52;23.42
16613;BME280;8419;52.358;9.752;2023-04-30T11:27:02;101733.00;;;23.63;23.22
16613;BME280;8419;52.358;9.752;2023-04-30T11:29:50;101732.00;;;23.82;23.14
16613;BME280;8419;52.358;9.752;2023-04-30T11:32:38;101730.00;;;23.98;22.92
16613;BME280;8419;52.358;9.752;2023-04-30T11:35:24;101727.00;;;24.25;22.66
16613;BME280;8419;52.358;9.752;2023-04-30T11:38:11;101725.00;;;24.48;22.34
16613;BME280;8419;52.358;9.752;2023-04-30T11:40:59;101724.00;;;24.89;22.00
16613;BME280;8419;52.358;9.752;2023-04-30T11:43:44;101720.00;;;25.22;21.76
16613;BME280;8419;52.358;9.752;2023-04-30T11:46:30;101723.00;;;25.48;21.31
16613;BME280;8419;52.358;9.752;2023-04-30T11:49:15;101720.00;;;25.75;21.04
16613;BME280;8419;52.358;9.752;2023-04-30T11:52:01;101721.00;;;25.87;20.67
16613;BME280;8419;52.358;9.752;2023-04-30T11:54:47;101721.00;;;25.98;20.38
16613;BME280;8419;52.358;9.752;2023-04-30T11:57:39;101704.00;;;26.19;20.19
16613;BME280;8419;52.358;9.752;2023-04-30T12:00:27;101707.00;;;26.37;19.75
16613;BME280;8419;52.358;9.752;2023-04-30T12:03:14;101704.00;;;26.67;19.47
16613;BME280;8419;52.358;9.752;2023-04-30T12:06:00;101714.00;;;27.09;19.24
16613;BME280;8419;52.358;9.752;2023-04-30T12:08:46;101707.00;;;27.30;19.01
16613;BME280;8419;52.358;9.752;2023-04-30T12:11:33;101704.00;;;27.64;18.68
16613;BME280;8419;52.358;9.752;2023-04-30T12:14:24;101703.00;;;27.99;18.34
16613;BME280;8419;52.358;9.752;2023-04-30T12:17:09;101688.00;;;28.37;18.05
16613;BME280;8419;52.358;9.752;2023-04-30T12:19:55;101686.00;;;28.70;17.86
16613;BME280;8419;52.358;9.752;2023-04-30T12:22:41;101694.00;;;29.12;17.51
16613;BME280;8419;52.358;9.752;2023-04-30T12:25:30;101690.00;;;29.60;17.04
16613;BME280;8419;52.358;9.752;2023-04-30T12:28:15;101693.00;;;30.14;16.63
16613;BME280;8419;52.358;9.752;2023-04-30T12:31:01;101692.00;;;30.33;16.36
16613;BME280;8419;52.358;9.752;2023-04-30T12:33:56;101690.00;;;30.80;16.17
16613;BME280;8419;52.358;9.752;2023-04-30T12:36:41;101689.00;;;31.04;15.76
16613;BME280;8419;52.358;9.752;2023-04-30T12:39:33;101684.00;;;31.24;15.76
16613;BME280;8419;52.358;9.752;2023-04-30T12:42:20;101687.00;;;31.83;15.45
16613;BME280;8419;52.358;9.752;2023-04-30T12:45:08;101694.00;;;32.54;15.08
16613;BME280;8419;52.358;9.752;2023-04-30T12:47:54;101687.00;;;33.17;14.65
16613;BME280;8419;52.358;9.752;2023-04-30T12:50:40;101683.00;;;33.77;14.22
16613;BME280;8419;52.358;9.752;2023-04-30T12:53:26;101678.00;;;33.97;14.02
16613;BME280;8419;52.358;9.752;2023-04-30T12:56:14;101668.00;;;34.13;13.93
16613;BME280;8419;52.358;9.752;2023-04-30T12:59:00;101670.00;;;34.19;13.84
16613;BME280;8419;52.358;9.752;2023-04-30T13:01:45;101671.00;;;34.80;13.47
16613;BME280;8419;52.358;9.752;2023-04-30T13:04:31;101673.00;;;35.18;13.15
16613;BME280;8419;52.358;9.752;2023-04-30T13:07:17;101664.00;;;35.01;13.27
16613;BME280;8419;52.358;9.752;2023-04-30T13:10:03;101663.00;;;35.00;13.13
16613;BME280;8419;52.358;9.752;2023-04-30T13:12:55;101657.00;;;34.80;13.23
16613;BME280;8419;52.358;9.752;2023-04-30T13:15:42;101651.00;;;34.40;13.46
16613;BME280;8419;52.358;9.752;2023-04-30T13:18:28;101654.00;;;34.39;13.51
16613;BME280;8419;52.358;9.752;2023-04-30T13:21:13;101650.00;;;34.36;13.51
16613;BME280;8419;52.358;9.752;2023-04-30T13:23:59;101655.00;;;34.59;13.35
16613;BME280;8419;52.358;9.752;2023-04-30T13:26:44;101644.00;;;34.99;13.03
16613;BME280;8419;52.358;9.752;2023-04-30T13:29:30;101640.00;;;34.40;12.69
16613;BME280;8419;52.358;9.752;2023-04-30T13:32:16;101635.00;;;33.44;13.14
16613;BME280;8419;52.358;9.752;2023-04-30T13:35:02;101631.00;;;33.10;13.44
16613;BME280;8419;52.358;9.752;2023-04-30T13:37:47;101629.00;;;32.84;13.61
16613;BME280;8419;52.358;9.752;2023-04-30T13:40:33;101626.00;;;33.04;13.45
16613;BME280;8419;52.358;9.752;2023-04-30T13:43:19;101628.00;;;33.38;13.11
16613;BME280;8419;52.358;9.752;2023-04-30T13:46:04;101616.00;;;34.21;12.72
16613;BME280;8419;52.358;9.752;2023-04-30T13:48:50;101610.00;;;35.76;11.98
16613;BME280;8419;52.358;9.752;2023-04-30T13:51:37;101604.00;;;37.09;11.29
16613;BME280;8419;52.358;9.752;2023-04-30T13:54:22;101604.00;;;37.46;11.14
16613;BME280;8419;52.358;9.752;2023-04-30T13:57:08;101606.00;;;37.42;11.20
16613;BME280;8419;52.358;9.752;2023-04-30T13:59:54;101600.00;;;37.77;11.18
16613;BME280;8419;52.358;9.752;2023-04-30T14:02:39;101600.00;;;38.76;10.75
16613;BME280;8419;52.358;9.752;2023-04-30T14:05:25;101604.00;;;39.86;10.21
16613;BME280;8419;52.358;9.752;2023-04-30T14:08:11;101594.00;;;40.13;10.03
16613;BME280;8419;52.358;9.752;2023-04-30T14:10:56;101596.00;;;40.14;10.04
16613;BME280;8419;52.358;9.752;2023-04-30T14:13:42;101592.00;;;39.64;10.22
16613;BME280;8419;52.358;9.752;2023-04-30T14:16:28;101587.00;;;39.05;10.45
16613;BME280;8419;52.358;9.752;2023-04-30T14:19:14;101581.00;;;38.90;10.59
16613;BME280;8419;52.358;9.752;2023-04-30T14:22:00;101579.00;;;39.10;10.36
16613;BME280;8419;52.358;9.752;2023-04-30T14:24:46;101578.00;;;39.88;9.97
16613;BME280;8419;52.358;9.752;2023-04-30T14:27:31;101566.00;;;40.03;9.86
16613;BME280;8419;52.358;9.752;2023-04-30T14:30:17;101575.00;;;39.35;10.18
16613;BME280;8419;52.358;9.752;2023-04-30T14:33:06;101569.00;;;38.45;10.62
16613;BME280;8419;52.358;9.752;2023-04-30T14:35:52;101561.00;;;38.07;10.80
16613;BME280;8419;52.358;9.752;2023-04-30T14:38:38;101553.00;;;38.16;10.71
16613;BME280;8419;52.358;9.752;2023-04-30T14:41:23;101547.00;;;38.46;10.49
16613;BME280;8419;52.358;9.752;2023-04-30T14:44:09;101543.00;;;38.35;10.52
16613;BME280;8419;52.358;9.752;2023-04-30T14:46:55;101541.00;;;38.54;10.39